Snowmass, Colorado
Current Conditions -  °F | °C
As of 12:53 AM on Thursday 18 Dec 2014 (Local Time) from KASE Reporting Station
Light Snow Light Snow  
Wind Chill: 27°   Ceiling: 1900
Heat Index: 27°   Visibility: 4mi
Dew Point: 25°   Wind: 0mph
Humidity: 92%   Direction: NA
Pressure: 29.99"   Gusts: NA
Location:  39.33°N, 106.99°W
Report Text: KASE 180753Z AUTO 00000KT 4SM -SN BR FEW004 BKN019 OVC033 M03/M04 A2999 RMK AO2 SLP138 P0001 T10281039
Loading
Personal Weather Stations






























Interactive Weather Map New forecast layout! Learn more

10-Day Weather Forecast

Advertisements
Track Severe Weather on mobile